createdAt,value
2023-04-26T00:04:05.544Z,81.56
2023-04-26T00:09:28.084Z,81.71
2023-04-26T00:14:50.963Z,81.91
2023-04-26T00:20:14.445Z,82.19
2023-04-26T00:25:36.834Z,82.43
2023-04-26T00:30:59.074Z,82.83
2023-04-26T00:36:21.477Z,83.33
2023-04-26T00:41:43.784Z,83.73
2023-04-26T00:47:07.077Z,84.23
2023-04-26T00:52:29.649Z,84.55
2023-04-26T00:57:52.328Z,85.02
2023-04-26T01:03:14.899Z,85.42
2023-04-26T01:08:37.488Z,85.85
2023-04-26T01:14:00.789Z,86.30
2023-04-26T01:19:26.974Z,86.80
2023-04-26T01:24:50.325Z,87.20
2023-04-26T01:30:14.250Z,87.58
2023-04-26T01:35:36.540Z,87.69
2023-04-26T01:40:58.766Z,87.51
2023-04-26T01:46:21.249Z,87.21
2023-04-26T01:51:44.000Z,86.74
2023-04-26T01:57:06.370Z,86.11
2023-04-26T02:02:29.908Z,85.44
2023-04-26T02:07:52.357Z,84.85
2023-04-26T02:13:15.019Z,84.30
2023-04-26T02:18:37.501Z,83.86
2023-04-26T02:23:59.722Z,83.65
2023-04-26T02:29:32.623Z,83.80
2023-04-26T02:34:46.622Z,84.20
2023-04-26T02:40:12.314Z,84.78
2023-04-26T02:45:34.699Z,85.34
2023-04-26T02:50:57.489Z,85.56
2023-04-26T02:56:20.350Z,85.61
2023-04-26T03:01:42.626Z,85.61
2023-04-26T03:07:04.902Z,85.77
2023-04-26T03:12:27.231Z,85.97
2023-04-26T03:17:50.093Z,86.31
2023-04-26T03:23:12.393Z,86.53
2023-04-26T03:28:34.737Z,86.83
2023-04-26T03:33:56.971Z,87.19
2023-04-26T03:39:19.311Z,87.68
2023-04-26T03:44:41.627Z,88.21
2023-04-26T03:50:04.039Z,88.65
2023-04-26T03:55:26.717Z,89.08
2023-04-26T04:00:52.087Z,89.53
2023-04-26T04:06:14.594Z,89.99
2023-04-26T04:11:36.826Z,90.44
2023-04-26T04:16:59.884Z,90.68
2023-04-26T04:22:22.225Z,90.74
2023-04-26T04:27:47.184Z,90.59
2023-04-26T04:33:09.724Z,90.22
2023-04-26T04:38:32.121Z,89.63
2023-04-26T04:43:55.256Z,88.70
2023-04-26T04:49:19.643Z,87.71
2023-04-26T04:54:41.884Z,86.79
2023-04-26T05:00:06.217Z,85.40
2023-04-26T05:05:29.436Z,83.56
2023-04-26T05:10:52.246Z,82.05
2023-04-26T05:16:14.727Z,80.74
2023-04-26T05:21:37.053Z,79.70
2023-04-26T05:26:59.981Z,78.77
2023-04-26T05:32:22.225Z,78.10
2023-04-26T05:37:44.488Z,77.48
2023-04-26T05:43:06.728Z,77.16
2023-04-26T05:48:30.111Z,76.85
2023-04-26T05:53:52.727Z,76.77
2023-04-26T05:59:16.468Z,76.62
2023-04-26T06:04:39.294Z,76.23
2023-04-26T06:10:02.885Z,76.00
2023-04-26T06:15:25.695Z,75.60
2023-04-26T06:20:47.924Z,75.12
2023-04-26T06:26:10.175Z,74.14
2023-04-26T06:31:32.479Z,73.53
2023-04-26T06:36:54.840Z,71.93
2023-04-26T06:42:18.235Z,70.01
2023-04-26T06:47:40.515Z,68.44
2023-04-26T06:53:02.948Z,67.10
2023-04-26T06:58:25.210Z,65.76
2023-04-26T07:03:48.083Z,64.85
2023-04-26T07:09:13.553Z,63.84
2023-04-26T07:14:37.862Z,63.68
2023-04-26T07:20:00.193Z,63.81
2023-04-26T07:25:22.857Z,64.18
2023-04-26T07:30:45.116Z,62.28
2023-04-26T07:36:14.213Z,61.18
2023-04-26T07:41:37.053Z,58.07
2023-04-26T07:46:59.391Z,57.94
2023-04-26T07:52:22.704Z,58.30
2023-04-26T07:57:45.331Z,58.43
2023-04-26T08:03:08.711Z,57.84
2023-04-26T08:08:33.959Z,57.31
2023-04-26T08:13:56.601Z,57.13
2023-04-26T08:19:18.915Z,58.18
2023-04-26T08:24:41.205Z,56.49
2023-04-26T08:30:03.527Z,55.31
2023-04-26T08:35:26.014Z,54.08
2023-04-26T08:40:48.950Z,54.12
2023-04-26T08:46:13.589Z,55.67
2023-04-26T08:51:37.521Z,55.13
2023-04-26T08:57:02.362Z,54.46
2023-04-26T09:02:27.715Z,55.38
2023-04-26T09:07:53.635Z,56.10
2023-04-26T09:13:15.971Z,56.20
2023-04-26T09:18:39.304Z,55.88
2023-04-26T09:24:20.724Z,54.96
2023-04-26T09:29:43.061Z,55.66
2023-04-26T09:35:05.281Z,56.18
2023-04-26T09:40:34.105Z,56.07
2023-04-26T09:46:15.476Z,55.89
2023-04-26T09:51:37.895Z,54.54
2023-04-26T09:57:07.534Z,52.92
2023-04-26T10:02:36.035Z,52.72
2023-04-26T10:07:58.480Z,51.33
2023-04-26T10:13:22.426Z,51.29
2023-04-26T10:18:45.886Z,51.05
2023-04-26T10:24:09.328Z,51.44
2023-04-26T10:29:33.416Z,51.16
2023-04-26T10:35:14.599Z,49.60
2023-04-26T10:40:46.675Z,49.22
2023-04-26T10:46:12.568Z,50.78
2023-04-26T10:51:35.755Z,50.86
2023-04-26T10:57:01.645Z,50.41
2023-04-26T11:02:24.079Z,50.03
2023-04-26T11:07:58.483Z,48.80
2023-04-26T11:13:21.675Z,47.63
2023-04-26T11:18:46.420Z,48.06
2023-04-26T11:24:14.621Z,48.31
2023-04-26T11:29:40.351Z,48.90
2023-04-26T11:35:02.739Z,48.98
2023-04-26T11:40:27.300Z,46.62
2023-04-26T11:45:51.318Z,44.33
2023-04-26T11:51:19.073Z,44.63
2023-04-26T11:56:41.327Z,44.82
2023-04-26T12:02:06.374Z,41.56
2023-04-26T12:07:30.860Z,42.71
2023-04-26T12:12:57.935Z,44.72
2023-04-26T12:18:25.285Z,45.94
2023-04-26T12:23:51.024Z,42.35
2023-04-26T12:29:13.845Z,40.12
2023-04-26T12:34:36.592Z,38.46
2023-04-26T12:39:59.029Z,38.29
2023-04-26T12:45:21.503Z,40.17
2023-04-26T12:50:44.588Z,41.83
2023-04-26T12:56:07.164Z,43.17
2023-04-26T13:01:32.273Z,43.14
2023-04-26T13:06:55.076Z,42.54
2023-04-26T13:12:17.659Z,42.39
2023-04-26T13:17:43.386Z,40.17
2023-04-26T13:23:06.043Z,39.43
2023-04-26T13:28:28.849Z,38.65
2023-04-26T13:33:51.679Z,39.13
2023-04-26T13:39:14.386Z,38.77
2023-04-26T13:44:37.709Z,40.86
2023-04-26T13:50:00.452Z,39.83
2023-04-26T13:55:26.618Z,40.67
2023-04-26T14:00:49.912Z,41.11
2023-04-26T14:06:14.057Z,41.28
2023-04-26T14:11:36.503Z,41.71
2023-04-26T14:16:58.918Z,42.26
2023-04-26T14:22:21.318Z,42.28
2023-04-26T14:27:44.019Z,41.42
2023-04-26T14:33:06.587Z,39.85
2023-04-26T14:38:29.623Z,36.38
2023-04-26T14:43:55.123Z,35.45
2023-04-26T14:49:17.620Z,34.04
2023-04-26T14:54:41.876Z,36.96
2023-04-26T15:00:11.726Z,37.16
2023-04-26T15:05:34.151Z,36.39
2023-04-26T15:10:56.946Z,32.75
2023-04-26T15:16:23.195Z,31.83
2023-04-26T15:21:45.744Z,32.97
2023-04-26T15:27:09.374Z,33.73
2023-04-26T15:32:32.482Z,35.13
2023-04-26T15:37:56.520Z,36.94
2023-04-26T15:43:19.800Z,38.04
2023-04-26T15:48:43.049Z,36.67
2023-04-26T15:54:05.576Z,34.12
2023-04-26T15:59:28.796Z,34.85
2023-04-26T16:04:51.271Z,38.24
2023-04-26T16:10:15.177Z,40.79
2023-04-26T16:15:38.065Z,41.94
2023-04-26T16:21:03.094Z,41.51
2023-04-26T16:26:26.044Z,41.29
2023-04-26T16:31:49.232Z,42.03
2023-04-26T16:37:11.977Z,41.63
2023-04-26T16:42:37.349Z,42.67
2023-04-26T16:48:00.842Z,42.71
2023-04-26T16:53:23.444Z,43.44
2023-04-26T16:58:47.956Z,44.53
2023-04-26T17:04:13.338Z,46.29
2023-04-26T17:09:38.699Z,47.75
2023-04-26T17:15:04.450Z,48.72
2023-04-26T17:20:26.392Z,48.73
2023-04-26T17:25:49.700Z,47.37
2023-04-26T17:31:12.982Z,47.59
2023-04-26T17:36:35.608Z,47.38
2023-04-26T17:41:58.626Z,47.88
2023-04-26T17:47:22.254Z,49.49
2023-04-26T17:52:46.179Z,50.83
2023-04-26T17:58:08.985Z,52.32
2023-04-26T18:03:32.052Z,53.20
2023-04-26T18:08:54.595Z,54.37
2023-04-26T18:14:17.064Z,55.37
2023-04-26T18:19:39.547Z,56.30
2023-04-26T18:25:01.952Z,57.71
2023-04-26T18:30:25.239Z,59.04
2023-04-26T18:35:47.852Z,60.18
2023-04-26T18:41:10.083Z,60.39
2023-04-26T18:46:32.491Z,60.80
2023-04-26T18:51:54.764Z,61.52
2023-04-26T18:57:18.633Z,62.33
2023-04-26T19:02:41.445Z,62.96
2023-04-26T19:08:06.677Z,63.81
2023-04-26T19:13:29.807Z,64.93
2023-04-26T19:18:52.513Z,66.17
2023-04-26T19:24:14.835Z,67.03
2023-04-26T19:29:37.234Z,67.75
2023-04-26T19:34:59.598Z,68.33
2023-04-26T19:40:22.535Z,68.48
2023-04-26T19:45:44.844Z,68.52
2023-04-26T19:51:07.308Z,68.47
2023-04-26T19:56:29.610Z,68.22
2023-04-26T20:01:53.787Z,68.34
2023-04-26T20:07:15.809Z,68.79
2023-04-26T20:12:39.534Z,69.29
2023-04-26T20:18:02.491Z,69.80
2023-04-26T20:23:25.149Z,70.33
2023-04-26T20:28:47.914Z,70.26
2023-04-26T20:34:10.626Z,70.35
2023-04-26T20:39:34.280Z,71.07
2023-04-26T20:44:57.935Z,71.64
2023-04-26T20:50:21.625Z,72.30
2023-04-26T20:55:44.069Z,72.80
2023-04-26T21:01:12.931Z,72.95
2023-04-26T21:06:35.223Z,72.13
2023-04-26T21:11:57.560Z,71.12
2023-04-26T21:17:20.447Z,70.85
2023-04-26T21:22:42.767Z,71.03
2023-04-26T21:28:05.025Z,71.35
2023-04-26T21:33:27.480Z,71.69
2023-04-26T21:38:49.766Z,72.41
2023-04-26T21:44:12.457Z,72.96
2023-04-26T21:49:35.466Z,73.19
2023-04-26T21:54:57.874Z,73.53
2023-04-26T22:00:21.480Z,73.60
2023-04-26T22:05:44.892Z,73.08
2023-04-26T22:11:07.788Z,72.56
2023-04-26T22:16:30.145Z,72.36
2023-04-26T22:21:54.381Z,72.22
2023-04-26T22:27:16.765Z,71.67
2023-04-26T22:32:39.123Z,71.04
2023-04-26T22:38:01.653Z,70.70
2023-04-26T22:43:24.271Z,70.77
2023-04-26T22:48:46.640Z,71.17
2023-04-26T22:54:08.863Z,71.53
2023-04-26T22:59:32.756Z,71.96
2023-04-26T23:04:55.080Z,72.47
2023-04-26T23:10:18.747Z,72.97
2023-04-26T23:15:42.233Z,73.39
2023-04-26T23:21:04.479Z,73.51
2023-04-26T23:26:26.735Z,73.50
2023-04-26T23:31:49.044Z,73.22
2023-04-26T23:37:11.531Z,72.76
2023-04-26T23:42:33.770Z,72.75
2023-04-26T23:47:56.084Z,72.94
2023-04-26T23:53:18.416Z,73.34
2023-04-26T23:58:40.735Z,73.49
